Airfield :
LOGIN :

Register | Disclaimer

   EN    FR    IT 

 










Legend :    VFR   Marginal VFR   IFR   Intensive IFR   Very Intensive IFR
Visi :
Ceiling :
>= 8 km
>= 3000ft
5 to 8 km
1000 to 3000 ft
1500m to 5 km
500 to 1000 ft
800 to 1500m
200 to 500 ft
< 800m
< 200 ft
Symbols :   Thunderstorms  Fog  Heavy snow  Heavy precipitations  Wind > 20 kt
SIGMETs :     Misc.  Thunderstorms  Icing  Turbulence  Mountain Waves  Volcanic Ashes






- Airport Elevation : 11444 ft


LIMH - Pian Rosa

CURRENT METAR :
  • 100455Z 15029KT 0100 -SN FZFG VV/// M05/M05 Q1019 RMK MON INVIS VAL INVIS VIS MIN 0100

EXPIRED METARs :
  • 100355Z 17021G37KT 0100 -SN FZFG VV/// M05/M05 Q1020 RMK MON INVIS VAL INVIS VIS MIN 0100
  • 100255Z 18022G37KT 0100 -SN FZFG VV/// M05/M05 Q1019 RMK MON INVIS VAL INVIS VIS MIN 0100
  • 100155Z 17025G36KT 0100 -SN FZFG VV/// M05/M05 Q1019 RMK MON INVIS VAL INVIS VIS MIN 0100

TAF N/A



MET'MAP, your aeronautical weather chart ! - Copyright ORBIFLY December 2007 - Disclaimer

ORBIFLY MET'MAP TEAM :

Programming & Development : Alexandra Zaïnal
Concept & original design : Baudouin d'Aumeries
Assistance for programming : Marc-Olivier Méhu
Technical & hardware support : Manuel Goepfert

Contact : metmap@orbifly.com




SOURCES & CREDITS :

   NOAA